Time;durP1;ratioP1;P1;durP2;ratioP2;P2;SDS_P1;SDS_P2;PMS_P1;PMS_P2;Temp;Humidity;BMP_temperature;BMP_pressure;BME280_temperature;BME280_humidity;BME280_pressure;Samples;Min_cycle;Max_cycle;Signal;HPM_P1;HPM_P2
2023/08/28 00:00:10;;;;;;;;;;;;;;;24.65;41.60;99292.63;3167876;28;20014;-71
2023/08/28 00:01:41;;;;;;;;;;;;;;;24.62;42.15;99290.31;3163314;28;19999;-72
2023/08/28 00:03:14;;;;;;;;;;;;;;;24.60;42.22;99290.47;3172826;28;19924;-72
2023/08/28 00:04:44;;;;;;;;;;;;;;;24.57;42.61;99284.66;3172528;28;19923;-72
2023/08/28 00:06:17;;;;;;;;;;;;;;;24.53;42.90;99289.50;3172593;27;20319;-72
2023/08/28 00:07:47;;;;;;;;;;;;;;;24.47;43.13;99283.03;3172539;28;19928;-72
2023/08/28 00:09:19;;;;;;;;;;;;;;;24.47;43.05;99284.84;3168517;28;20370;-72
2023/08/28 00:10:52;;;;;;;;;;;;;;;24.41;43.63;99278.34;3172499;28;19924;-72
2023/08/28 00:12:24;;;;;;;;;;;;;;;24.34;43.87;99282.69;3172449;28;19950;-71
2023/08/28 00:13:56;;;;;;;;;;;;;;;24.33;44.17;99272.22;3163644;28;19947;-72
2023/08/28 00:15:26;;;;;;;;;;;;;;;24.32;44.02;99273.22;3172508;28;19924;-72
2023/08/28 00:16:58;;;;;;;;;;;;;;;24.30;43.99;99271.56;3171937;28;19924;-72
2023/08/28 00:18:31;;;;;;;;;;;;;;;24.26;44.61;99267.59;3172468;28;19997;-72
2023/08/28 00:20:03;;;;;;;;;;;;;;;24.21;44.86;99269.91;3172560;28;19931;-72
2023/08/28 00:21:34;;;;;;;;;;;;;;;24.19;45.06;99271.91;3171830;28;20057;-71
2023/08/28 00:23:05;;;;;;;;;;;;;;;24.17;44.99;99273.09;3170567;28;20301;-71
2023/08/28 00:24:36;;;;;;;;;;;;;;;24.14;45.49;99266.28;3169922;28;19948;-74
2023/08/28 00:26:07;;;;;;;;;;;;;;;24.11;46.10;99268.44;3172083;28;19934;-73
2023/08/28 00:27:39;;;;;;;;;;;;;;;24.04;46.55;99265.63;3172232;28;19938;-72
2023/08/28 00:29:09;;;;;;;;;;;;;;;24.00;46.92;99267.78;3172004;28;19923;-71
2023/08/28 00:30:41;;;;;;;;;;;;;;;23.95;47.56;99266.63;3172000;28;20077;-73
2023/08/28 00:32:11;;;;;;;;;;;;;;;23.94;47.22;99271.13;3172371;28;19943;-72
2023/08/28 00:33:44;;;;;;;;;;;;;;;23.95;47.62;99269.28;3172317;28;19924;-71
2023/08/28 00:35:15;;;;;;;;;;;;;;;23.91;47.58;99266.16;3171984;28;19928;-72
2023/08/28 00:36:46;;;;;;;;;;;;;;;23.89;48.37;99264.66;3172142;28;20449;-74
2023/08/28 00:38:17;;;;;;;;;;;;;;;23.87;48.27;99261.31;3168261;28;19932;-74
2023/08/28 00:39:49;;;;;;;;;;;;;;;23.87;48.66;99261.31;3171667;28;19951;-74
2023/08/28 00:41:19;;;;;;;;;;;;;;;23.88;48.30;99263.00;3172118;28;19924;-71
2023/08/28 00:42:51;;;;;;;;;;;;;;;23.90;48.44;99258.31;3171904;28;20396;-73
2023/08/28 00:44:21;;;;;;;;;;;;;;;23.90;48.65;99260.97;3172054;28;19928;-71
2023/08/28 00:45:53;;;;;;;;;;;;;;;23.92;48.17;99266.97;3171900;28;20349;-72
2023/08/28 00:47:24;;;;;;;;;;;;;;;23.93;48.30;99253.53;3171705;28;20411;-71
2023/08/28 00:48:57;;;;;;;;;;;;;;;23.94;48.17;99259.66;3171838;28;19923;-72
2023/08/28 00:50:27;;;;;;;;;;;;;;;23.96;48.38;99255.00;3172015;28;20398;-72
2023/08/28 00:51:59;;;;;;;;;;;;;;;23.93;48.50;99261.50;3171900;28;20031;-71
2023/08/28 00:53:32;;;;;;;;;;;;;;;23.90;49.14;99250.34;3164996;28;19969;-72
2023/08/28 00:55:03;;;;;;;;;;;;;;;23.84;49.19;99254.53;3168356;28;19924;-72
2023/08/28 00:56:35;;;;;;;;;;;;;;;23.80;49.56;99255.84;3171726;28;19928;-71
2023/08/28 00:58:06;;;;;;;;;;;;;;;23.76;49.89;99258.03;3171895;28;19923;-72
2023/08/28 00:59:37;;;;;;;;;;;;;;;23.76;49.57;99255.38;3172003;28;20339;-72
2023/08/28 01:01:09;;;;;;;;;;;;;;;23.77;49.78;99258.84;3159416;28;19936;-71
2023/08/28 01:02:40;;;;;;;;;;;;;;;23.76;50.03;99260.69;3171466;28;20051;-71
2023/08/28 01:04:13;;;;;;;;;;;;;;;23.75;49.89;99255.50;3171940;28;19927;-71
2023/08/28 01:05:46;;;;;;;;;;;;;;;23.75;49.84;99253.72;3171552;28;19928;-72
2023/08/28 01:07:21;;;;;;;;;;;;;;;23.70;50.81;99257.88;3168307;28;19971;-72
2023/08/28 01:08:55;;;;;;;;;;;;;;;23.66;50.48;99252.00;3146308;28;19977;-71
2023/08/28 01:10:29;;;;;;;;;;;;;;;23.68;50.72;99251.84;3159206;28;19924;-72
2023/08/28 01:12:03;;;;;;;;;;;;;;;23.70;50.46;99250.72;3170420;28;19924;-72
2023/08/28 01:13:41;;;;;;;;;;;;;;;23.73;50.10;99250.38;3163347;28;19961;-72
2023/08/28 01:15:14;;;;;;;;;;;;;;;23.76;50.03;99258.03;3170353;28;19923;-72
2023/08/28 01:16:49;;;;;;;;;;;;;;;23.78;50.10;99253.38;3171638;28;20006;-72
2023/08/28 01:18:22;;;;;;;;;;;;;;;23.79;49.84;99249.72;3171968;28;19932;-72
2023/08/28 01:19:55;;;;;;;;;;;;;;;23.79;50.09;99249.72;3171300;28;19927;-71
2023/08/28 01:21:27;;;;;;;;;;;;;;;23.79;50.11;99246.22;3171317;28;20423;-72
2023/08/28 01:22:59;;;;;;;;;;;;;;;23.80;49.92;99251.34;3163798;28;19924;-72
2023/08/28 01:24:31;;;;;;;;;;;;;;;23.80;49.97;99243.38;3171225;28;20006;-71
2023/08/28 01:26:03;;;;;;;;;;;;;;;23.82;49.95;99241.41;3171620;28;19946;-72
2023/08/28 01:27:35;;;;;;;;;;;;;;;23.86;49.79;99241.88;3171205;28;19933;-72
2023/08/28 01:29:07;;;;;;;;;;;;;;;23.85;49.84;99248.22;3171365;28;19923;-72
2023/08/28 01:30:37;;;;;;;;;;;;;;;23.79;49.70;99244.38;3171531;28;19932;-72
2023/08/28 01:32:09;;;;;;;;;;;;;;;23.74;50.10;99244.06;3171283;28;20019;-72
2023/08/28 01:33:39;;;;;;;;;;;;;;;23.68;49.99;99235.91;3170714;28;19924;-71
2023/08/28 01:35:13;;;;;;;;;;;;;;;23.65;50.12;99236.22;3171304;28;19935;-72
2023/08/28 01:36:46;;;;;;;;;;;;;;;23.64;50.24;99238.06;3166518;28;19928;-72
2023/08/28 01:38:20;;;;;;;;;;;;;;;23.61;50.26;99238.41;3170946;28;20781;-72
2023/08/28 01:39:52;;;;;;;;;;;;;;;23.57;50.20;99243.22;3171136;28;20003;-73
2023/08/28 01:41:25;;;;;;;;;;;;;;;23.56;50.34;99240.72;3171556;28;19928;-72
2023/08/28 01:42:56;;;;;;;;;;;;;;;23.54;50.14;99240.03;3146248;28;20021;-72
2023/08/28 01:44:31;;;;;;;;;;;;;;;23.53;49.98;99241.88;3169926;28;19923;-72
2023/08/28 01:46:02;;;;;;;;;;;;;;;23.51;49.92;99240.38;3171082;27;20022;-72
2023/08/28 01:47:34;;;;;;;;;;;;;;;23.52;50.07;99242.06;3171342;28;19969;-72
2023/08/28 01:49:05;;;;;;;;;;;;;;;23.52;49.81;99237.56;3170642;28;19951;-72
2023/08/28 01:50:36;;;;;;;;;;;;;;;23.53;49.62;99243.72;3167965;28;19923;-72
2023/08/28 01:52:07;;;;;;;;;;;;;;;23.55;49.59;99239.06;3167207;28;20227;-72
2023/08/28 01:53:39;;;;;;;;;;;;;;;23.56;49.50;99233.56;3170456;28;20022;-72
2023/08/28 01:55:10;;;;;;;;;;;;;;;23.57;49.37;99242.38;3171111;28;19923;-72
2023/08/28 01:56:43;;;;;;;;;;;;;;;23.59;49.34;99241.22;3170813;28;20014;-72
2023/08/28 01:58:14;;;;;;;;;;;;;;;23.64;49.41;99239.91;3170885;28;20007;-72
2023/08/28 01:59:46;;;;;;;;;;;;;;;23.66;49.13;99243.19;3170976;28;19926;-72
2023/08/28 02:01:16;;;;;;;;;;;;;;;23.69;49.10;99237.53;3160598;28;19931;-72
2023/08/28 02:02:48;;;;;;;;;;;;;;;23.70;49.13;99233.94;3170820;28;19950;-72
2023/08/28 02:04:19;;;;;;;;;;;;;;;23.70;48.96;99234.75;3171058;28;19931;-72
2023/08/28 02:05:50;;;;;;;;;;;;;;;23.71;49.07;99230.28;3165995;28;19931;-73
2023/08/28 02:07:21;;;;;;;;;;;;;;;23.68;48.71;99231.41;3170691;28;19924;-72
2023/08/28 02:08:52;;;;;;;;;;;;;;;23.72;48.74;99229.25;3171173;28;20408;-73
2023/08/28 02:10:23;;;;;;;;;;;;;;;23.74;48.67;99225.44;3170823;28;19930;-72
2023/08/28 02:11:55;;;;;;;;;;;;;;;23.73;48.67;99222.97;3170728;28;19923;-72
2023/08/28 02:13:27;;;;;;;;;;;;;;;23.73;48.94;99213.16;3163334;28;20003;-72
2023/08/28 02:14:58;;;;;;;;;;;;;;;23.73;48.60;99215.00;3168259;28;19924;-72
2023/08/28 02:16:29;;;;;;;;;;;;;;;23.73;48.70;99217.66;3170860;28;19924;-72
2023/08/28 02:18:00;;;;;;;;;;;;;;;23.70;48.79;99216.16;3170541;28;20297;-72
2023/08/28 02:19:32;;;;;;;;;;;;;;;23.67;48.58;99213.81;3170715;28;19924;-72
2023/08/28 02:21:03;;;;;;;;;;;;;;;23.68;48.51;99218.09;3166553;28;20324;-72
2023/08/28 02:22:34;;;;;;;;;;;;;;;23.66;48.76;99209.47;3170541;28;19928;-73
2023/08/28 02:24:05;;;;;;;;;;;;;;;23.66;48.43;99204.16;3170420;28;19924;-73
2023/08/28 02:25:40;;;;;;;;;;;;;;;23.66;48.63;99219.28;3171047;28;19930;-73
2023/08/28 02:27:12;;;;;;;;;;;;;;;23.66;48.44;99220.09;3170597;28;20457;-73
2023/08/28 02:28:44;;;;;;;;;;;;;;;23.69;48.25;99216.28;3170480;28;20034;-73
2023/08/28 02:30:15;;;;;;;;;;;;;;;23.66;48.44;99214.78;3170932;28;20051;-73
2023/08/28 02:31:47;;;;;;;;;;;;;;;23.66;48.42;99213.97;3170857;28;19927;-73
2023/08/28 02:33:17;;;;;;;;;;;;;;;23.66;48.29;99221.94;3170221;28;19984;-73
2023/08/28 02:34:49;;;;;;;;;;;;;;;23.65;48.53;99218.44;3166865;28;19932;-73
2023/08/28 02:36:19;;;;;;;;;;;;;;;23.64;48.44;99210.66;3170327;28;19928;-73
2023/08/28 02:37:51;;;;;;;;;;;;;;;23.61;48.61;99214.47;3170746;28;19923;-73
2023/08/28 02:39:21;;;;;;;;;;;;;;;23.59;48.40;99217.28;3170801;28;19923;-73
2023/08/28 02:40:53;;;;;;;;;;;;;;;23.59;48.40;99221.78;3170256;28;19928;-73
2023/08/28 02:42:25;;;;;;;;;;;;;;;23.61;48.36;99214.47;3170520;28;19931;-73
2023/08/28 02:43:56;;;;;;;;;;;;;;;23.59;48.66;99219.94;3170620;28;20469;-72
2023/08/28 02:45:27;;;;;;;;;;;;;;;23.56;48.52;99214.13;3170681;28;19923;-73
2023/08/28 02:46:58;;;;;;;;;;;;;;;23.55;48.33;99220.47;3166735;28;20459;-73
2023/08/28 02:48:29;;;;;;;;;;;;;;;23.52;48.53;99216.31;3163112;28;19924;-72
2023/08/28 02:50:01;;;;;;;;;;;;;;;23.50;48.55;99220.13;3165581;28;20010;-73
2023/08/28 02:51:32;;;;;;;;;;;;;;;23.46;48.42;99218.81;3167103;28;19925;-72
2023/08/28 02:53:04;;;;;;;;;;;;;;;23.45;48.76;99219.78;3160568;28;20005;-73
2023/08/28 02:54:36;;;;;;;;;;;;;;;23.43;48.63;99225.28;3170335;28;19924;-73
2023/08/28 02:56:11;;;;;;;;;;;;;;;23.36;48.89;99225.09;3170481;28;19924;-72
2023/08/28 02:57:44;;;;;;;;;;;;;;;23.29;48.80;99226.75;3170559;28;20309;-73
2023/08/28 02:59:15;;;;;;;;;;;;;;;23.20;49.09;99227.75;3170634;28;19928;-73
2023/08/28 03:00:46;;;;;;;;;;;;;;;23.14;49.10;99241.69;3161657;28;20371;-73
2023/08/28 03:02:17;;;;;;;;;;;;;;;23.07;49.19;99227.38;3163511;28;19928;-73
2023/08/28 03:03:48;;;;;;;;;;;;;;;23.04;49.20;99225.03;3167485;28;19934;-73
2023/08/28 03:05:19;;;;;;;;;;;;;;;23.02;48.98;99227.88;3168521;28;19928;-73
2023/08/28 03:06:51;;;;;;;;;;;;;;;23.00;49.06;99226.38;3170265;28;19924;-73
2023/08/28 03:08:21;;;;;;;;;;;;;;;22.93;49.26;99220.88;3170467;28;19924;-72
2023/08/28 03:09:53;;;;;;;;;;;;;;;22.87;49.35;99218.88;3170795;28;19928;-72
2023/08/28 03:11:23;;;;;;;;;;;;;;;22.85;49.23;99219.00;3170695;28;19935;-73
2023/08/28 03:12:56;;;;;;;;;;;;;;;22.84;49.14;99224.50;3168400;28;19924;-72
2023/08/28 03:14:27;;;;;;;;;;;;;;;22.82;48.87;99222.00;3163279;28;20341;-73
2023/08/28 03:15:59;;;;;;;;;;;;;;;22.80;49.23;99212.53;3170684;28;20008;-73
2023/08/28 03:17:29;;;;;;;;;;;;;;;22.77;49.15;99220.81;3169987;28;19923;-73
2023/08/28 03:19:01;;;;;;;;;;;;;;;22.74;48.96;99224.63;3165745;28;19932;-73
2023/08/28 03:20:32;;;;;;;;;;;;;;;22.71;49.12;99222.28;3170480;28;19924;-73
2023/08/28 03:22:03;;;;;;;;;;;;;;;22.69;48.97;99224.28;3170281;28;19923;-73
2023/08/28 03:23:34;;;;;;;;;;;;;;;22.66;49.21;99219.31;3170438;28;19927;-73
2023/08/28 03:25:06;;;;;;;;;;;;;;;22.63;49.02;99227.59;3171671;28;20405;-72
2023/08/28 03:26:36;;;;;;;;;;;;;;;22.59;49.38;99224.41;3172853;28;19981;-73
2023/08/28 03:28:09;;;;;;;;;;;;;;;22.58;49.26;99224.56;3173254;28;20014;-73
2023/08/28 03:29:40;;;;;;;;;;;;;;;22.54;49.41;99231.19;3172906;28;19923;-72
2023/08/28 03:31:11;;;;;;;;;;;;;;;22.45;49.57;99225.84;3173059;28;19931;-73
2023/08/28 03:32:42;;;;;;;;;;;;;;;22.40;49.58;99228.16;3172749;28;19935;-72
2023/08/28 03:34:13;;;;;;;;;;;;;;;22.37;49.84;99219.69;3168912;28;19966;-71
2023/08/28 03:35:44;;;;;;;;;;;;;;;22.31;49.86;99218.50;3172853;28;19935;-73
2023/08/28 03:37:15;;;;;;;;;;;;;;;22.31;49.96;99218.50;3172997;28;19923;-72
2023/08/28 03:38:46;;;;;;;;;;;;;;;22.31;49.90;99212.38;3172631;28;19931;-72
2023/08/28 03:40:17;;;;;;;;;;;;;;;22.29;50.00;99212.50;3173222;28;20393;-72
2023/08/28 03:41:49;;;;;;;;;;;;;;;22.28;49.79;99215.34;3172642;28;19928;-73
2023/08/28 03:43:21;;;;;;;;;;;;;;;22.25;49.77;99209.34;3169862;28;19924;-72
2023/08/28 03:44:53;;;;;;;;;;;;;;;22.21;49.92;99208.00;3172998;28;20559;-73
2023/08/28 03:46:23;;;;;;;;;;;;;;;22.19;50.01;99206.50;3172722;28;19949;-73
2023/08/28 03:47:55;;;;;;;;;;;;;;;22.16;50.08;99204.97;3167878;28;19924;-72
2023/08/28 03:49:26;;;;;;;;;;;;;;;22.12;50.46;99202.78;3160132;28;19924;-73
2023/08/28 03:50:58;;;;;;;;;;;;;;;22.09;50.50;99208.38;3172254;28;20366;-73
2023/08/28 03:52:29;;;;;;;;;;;;;;;22.06;50.69;99206.88;3172187;28;19932;-72
2023/08/28 03:54:01;;;;;;;;;;;;;;;22.06;50.67;99206.88;3172933;28;19923;-72
2023/08/28 03:55:32;;;;;;;;;;;;;;;22.07;50.66;99207.75;3172310;28;19935;-73
2023/08/28 03:57:04;;;;;;;;;;;;;;;22.08;50.36;99215.53;3172926;28;19923;-73
2023/08/28 03:58:36;;;;;;;;;;;;;;;22.11;50.24;99214.38;3165610;28;19924;-72
2023/08/28 04:00:12;;;;;;;;;;;;;;;22.14;50.53;99212.22;3167238;28;19924;-73
2023/08/28 04:01:43;;;;;;;;;;;;;;;22.17;50.30;99213.78;3161315;28;19977;-73
2023/08/28 04:03:15;;;;;;;;;;;;;;;22.12;50.70;99214.19;3167700;28;20477;-72
2023/08/28 04:04:46;;;;;;;;;;;;;;;22.12;50.69;99216.84;3172847;28;19923;-73
2023/08/28 04:06:17;;;;;;;;;;;;;;;22.16;50.49;99214.75;3172663;28;20566;-71
2023/08/28 04:07:48;;;;;;;;;;;;;;;22.11;50.70;99224.97;3172465;28;19931;-73
2023/08/28 04:09:20;;;;;;;;;;;;;;;22.07;50.85;99223.66;3172368;28;20316;-73
2023/08/28 04:10:51;;;;;;;;;;;;;;;22.00;51.02;99226.91;3172476;28;19931;-72
2023/08/28 04:12:22;;;;;;;;;;;;;;;21.95;51.12;99233.69;3172451;28;19924;-72
2023/08/28 04:13:55;;;;;;;;;;;;;;;21.92;51.35;99239.31;3162481;28;19928;-73
2023/08/28 04:15:26;;;;;;;;;;;;;;;21.87;51.33;99231.78;3172406;28;19931;-73
2023/08/28 04:16:57;;;;;;;;;;;;;;;21.88;51.65;99240.56;3169377;28;20404;-73
2023/08/28 04:18:28;;;;;;;;;;;;;;;21.86;51.46;99238.09;3171271;28;19976;-72
2023/08/28 04:19:59;;;;;;;;;;;;;;;21.89;51.27;99236.94;3172745;28;20065;-72
2023/08/28 04:21:30;;;;;;;;;;;;;;;21.93;51.27;99244.44;3172027;28;19988;-73
2023/08/28 04:23:01;;;;;;;;;;;;;;;21.98;51.00;99241.31;3172106;28;19923;-73
2023/08/28 04:24:32;;;;;;;;;;;;;;;21.98;51.11;99244.81;3171949;28;20006;-72
2023/08/28 04:26:03;;;;;;;;;;;;;;;22.04;50.95;99243.34;3172614;27;20544;-73
2023/08/28 04:27:34;;;;;;;;;;;;;;;22.04;51.07;99235.41;3172386;28;19981;-72
2023/08/28 04:29:07;;;;;;;;;;;;;;;22.07;50.72;99235.06;3171960;28;19931;-72
2023/08/28 04:30:37;;;;;;;;;;;;;;;22.08;50.87;99227.94;3172162;28;20341;-73
2023/08/28 04:32:09;;;;;;;;;;;;;;;22.11;50.64;99232.94;3168342;28;19934;-72
2023/08/28 04:33:40;;;;;;;;;;;;;;;22.14;50.70;99237.94;3172072;28;20293;-72
2023/08/28 04:35:11;;;;;;;;;;;;;;;22.16;50.41;99233.31;3171992;28;19932;-72
2023/08/28 04:36:42;;;;;;;;;;;;;;;22.20;50.47;99234.69;3171046;28;20072;-73
2023/08/28 04:38:13;;;;;;;;;;;;;;;22.24;50.58;99228.06;3171738;28;19968;-72
2023/08/28 04:39:45;;;;;;;;;;;;;;;22.25;50.52;99232.41;3166228;28;19924;-74
2023/08/28 04:41:16;;;;;;;;;;;;;;;22.27;50.50;99227.75;3172227;28;20380;-71
2023/08/28 04:42:47;;;;;;;;;;;;;;;22.29;50.47;99217.81;3172205;28;19931;-73
2023/08/28 04:44:19;;;;;;;;;;;;;;;22.31;50.42;99229.09;3172205;28;19928;-74
2023/08/28 04:45:51;;;;;;;;;;;;;;;22.32;50.25;99228.09;3170685;28;20018;-74
2023/08/28 04:47:22;;;;;;;;;;;;;;;22.34;50.40;99227.97;3168261;28;19930;-74
2023/08/28 04:48:53;;;;;;;;;;;;;;;22.33;50.19;99231.59;3172363;27;20014;-74
2023/08/28 04:50:24;;;;;;;;;;;;;;;22.33;50.43;99227.13;3171918;28;19924;-72
2023/08/28 04:51:56;;;;;;;;;;;;;;;22.34;50.34;99234.09;3171576;28;19930;-71
2023/08/28 04:53:26;;;;;;;;;;;;;;;22.35;50.48;99227.78;3171759;28;19935;-72
2023/08/28 04:54:58;;;;;;;;;;;;;;;22.35;50.49;99221.66;3168558;28;19924;-73
2023/08/28 04:56:28;;;;;;;;;;;;;;;22.36;50.42;99224.16;3171403;28;19928;-72
2023/08/28 04:58:00;;;;;;;;;;;;;;;22.37;50.42;99228.47;3172048;28;19984;-72
2023/08/28 04:59:32;;;;;;;;;;;;;;;22.39;50.45;99223.84;3171735;28;19942;-72
2023/08/28 05:01:03;;;;;;;;;;;;;;;22.43;50.50;99219.88;3165011;28;19950;-72
2023/08/28 05:02:34;;;;;;;;;;;;;;;22.46;50.40;99222.22;3171837;28;19928;-72
2023/08/28 05:04:06;;;;;;;;;;;;;;;22.47;50.63;99226.50;3171888;28;19924;-72
2023/08/28 05:05:37;;;;;;;;;;;;;;;22.51;50.58;99226.19;3171635;28;19970;-73
2023/08/28 05:07:08;;;;;;;;;;;;;;;22.52;50.60;99225.22;3171437;28;20320;-72
2023/08/28 05:08:40;;;;;;;;;;;;;;;22.55;50.43;99227.56;3171262;28;20179;-73
2023/08/28 05:10:10;;;;;;;;;;;;;;;22.55;50.79;99220.41;3171515;28;20396;-72
2023/08/28 05:11:42;;;;;;;;;;;;;;;22.54;50.56;99223.22;3171439;28;19924;-72
2023/08/28 05:13:13;;;;;;;;;;;;;;;22.55;50.78;99224.91;3166372;28;20396;-72
2023/08/28 05:14:46;;;;;;;;;;;;;;;22.55;50.66;99223.06;3166014;28;19935;-72
2023/08/28 05:16:17;;;;;;;;;;;;;;;22.54;50.56;99220.56;3167284;28;19924;-73
2023/08/28 05:17:48;;;;;;;;;;;;;;;22.56;50.64;99215.94;3171458;28;19928;-73
2023/08/28 05:19:19;;;;;;;;;;;;;;;22.58;50.71;99219.28;3171778;28;20289;-72
2023/08/28 05:20:50;;;;;;;;;;;;;;;22.59;50.69;99223.56;3171459;28;19924;-73
2023/08/28 05:22:21;;;;;;;;;;;;;;;22.60;50.84;99222.59;3171460;28;19923;-73
2023/08/28 05:23:52;;;;;;;;;;;;;;;22.62;50.80;99217.94;3170956;28;19924;-72
2023/08/28 05:25:23;;;;;;;;;;;;;;;22.65;50.71;99223.75;3171377;28;19927;-73
2023/08/28 05:26:54;;;;;;;;;;;;;;;22.70;50.54;99225.94;3171532;28;19924;-73
2023/08/28 05:28:25;;;;;;;;;;;;;;;22.74;50.78;99224.63;3172093;27;19928;-73
2023/08/28 05:30:00;;;;;;;;;;;;;;;22.78;50.53;99225.97;3167688;28;19977;-73
2023/08/28 05:31:30;;;;;;;;;;;;;;;22.85;50.46;99226.16;3170173;28;20100;-73
2023/08/28 05:33:02;;;;;;;;;;;;;;;22.99;50.50;99233.53;3160538;28;19936;-72
2023/08/28 05:34:32;;;;;;;;;;;;;;;23.10;50.28;99225.25;3168836;28;19924;-73
2023/08/28 05:36:04;;;;;;;;;;;;;;;23.21;50.33;99232.06;3164731;28;20533;-73
2023/08/28 05:37:35;;;;;;;;;;;;;;;23.31;50.50;99238.06;3166601;28;19935;-73
2023/08/28 05:39:07;;;;;;;;;;;;;;;23.42;50.31;99236.88;3171466;28;19934;-73
2023/08/28 05:40:38;;;;;;;;;;;;;;;23.53;50.56;99231.25;3171404;28;19942;-73
2023/08/28 05:42:09;;;;;;;;;;;;;;;23.64;50.65;99234.56;3171298;28;19942;-73
2023/08/28 05:43:40;;;;;;;;;;;;;;;23.74;50.56;99233.41;3170970;28;19924;-72
2023/08/28 05:45:13;;;;;;;;;;;;;;;23.84;50.60;99231.44;3166675;28;19924;-73
2023/08/28 05:46:44;;;;;;;;;;;;;;;24.01;50.34;99236.72;3171029;28;20438;-72
2023/08/28 05:48:15;;;;;;;;;;;;;;;24.17;50.26;99230.53;3171226;28;19923;-73
2023/08/28 05:49:46;;;;;;;;;;;;;;;24.32;50.06;99233.31;3171020;28;19924;-71
2023/08/28 05:51:17;;;;;;;;;;;;;;;24.47;50.00;99231.63;3163716;28;19992;-73
2023/08/28 05:52:48;;;;;;;;;;;;;;;24.66;50.07;99238.34;3170984;28;19927;-72
2023/08/28 05:54:19;;;;;;;;;;;;;;;24.88;49.71;99228.78;3170821;28;20317;-72
2023/08/28 05:55:51;;;;;;;;;;;;;;;25.02;49.58;99235.16;3171313;28;19924;-72
2023/08/28 05:57:23;;;;;;;;;;;;;;;25.21;49.20;99233.94;3170715;28;19924;-72
2023/08/28 05:58:55;;;;;;;;;;;;;;;25.41;48.85;99230.59;3169487;28;19935;-72
2023/08/28 06:00:28;;;;;;;;;;;;;;;25.59;48.54;99227.63;3164307;28;19946;-72
2023/08/28 06:02:00;;;;;;;;;;;;;;;25.82;48.27;99226.75;3163637;28;19974;-72
2023/08/28 06:03:31;;;;;;;;;;;;;;;26.01;48.09;99234.25;3170862;28;20356;-72
2023/08/28 06:05:02;;;;;;;;;;;;;;;26.22;48.25;99233.53;3170882;28;19924;-72
2023/08/28 06:06:34;;;;;;;;;;;;;;;26.43;47.72;99221.28;3170715;28;19924;-72
2023/08/28 06:08:05;;;;;;;;;;;;;;;26.63;47.38;99233.06;3171068;28;19924;-72
2023/08/28 06:09:36;;;;;;;;;;;;;;;26.81;47.32;99219.31;3170593;28;19948;-73
2023/08/28 06:11:07;;;;;;;;;;;;;;;26.89;47.51;99229.88;3170554;28;20289;-73
2023/08/28 06:12:38;;;;;;;;;;;;;;;26.94;47.26;99230.13;3171061;28;19928;-72
2023/08/28 06:14:09;;;;;;;;;;;;;;;27.04;47.39;99231.69;3160334;28;19928;-72
2023/08/28 06:15:42;;;;;;;;;;;;;;;27.11;47.25;99225.38;3170512;28;19924;-73
2023/08/28 06:17:12;;;;;;;;;;;;;;;27.20;47.09;99229.63;3170699;28;19923;-72
2023/08/28 06:18:44;;;;;;;;;;;;;;;27.23;47.27;99225.75;3170739;28;19934;-72
2023/08/28 06:20:15;;;;;;;;;;;;;;;27.26;46.98;99233.38;3170880;28;19931;-72
2023/08/28 06:21:47;;;;;;;;;;;;;;;27.36;47.13;99228.56;3170515;28;20393;-72
2023/08/28 06:23:18;;;;;;;;;;;;;;;27.39;46.96;99222.81;3170283;28;19923;-72
2023/08/28 06:24:52;;;;;;;;;;;;;;;27.55;46.82;99224.38;3170845;28;19930;-72
2023/08/28 06:26:23;;;;;;;;;;;;;;;27.75;46.29;99224.56;3171000;28;19932;-73
2023/08/28 06:27:54;;;;;;;;;;;;;;;27.91;45.99;99228.81;3170526;28;19950;-72
2023/08/28 06:29:25;;;;;;;;;;;;;;;28.04;45.83;99225.38;3166691;28;20392;-73
2023/08/28 06:30:58;;;;;;;;;;;;;;;28.19;45.60;99226.13;3170843;28;19934;-73
2023/08/28 06:32:28;;;;;;;;;;;;;;;28.29;45.33;99220.41;3168926;28;20423;-72
2023/08/28 06:34:00;;;;;;;;;;;;;;;28.20;45.48;99222.41;3170578;28;19923;-73
2023/08/28 06:35:31;;;;;;;;;;;;;;;28.18;45.44;99220.94;3171021;28;19928;-73
2023/08/28 06:37:03;;;;;;;;;;;;;;;28.17;44.93;99220.13;3170524;28;20309;-73
2023/08/28 06:38:33;;;;;;;;;;;;;;;28.18;44.75;99218.25;3170549;28;20328;-73
2023/08/28 06:40:08;;;;;;;;;;;;;;;28.05;45.15;99224.38;3170245;28;19938;-72
2023/08/28 06:41:39;;;;;;;;;;;;;;;27.89;44.95;99222.81;3170713;28;19932;-73
2023/08/28 06:43:10;;;;;;;;;;;;;;;27.85;45.14;99222.38;3165632;28;19931;-73
2023/08/28 06:44:41;;;;;;;;;;;;;;;27.92;45.01;99221.59;3170030;28;20378;-73
2023/08/28 06:46:14;;;;;;;;;;;;;;;28.00;45.00;99221.47;3170709;28;19987;-71
2023/08/28 06:47:44;;;;;;;;;;;;;;;28.04;44.72;99222.72;3160540;28;19932;-73
2023/08/28 06:49:16;;;;;;;;;;;;;;;27.95;44.60;99219.34;3169294;28;20424;-73
2023/08/28 06:50:46;;;;;;;;;;;;;;;27.89;44.84;99214.78;3170198;28;20400;-73
2023/08/28 06:52:19;;;;;;;;;;;;;;;27.83;44.93;99220.91;3170490;28;19928;-73
2023/08/28 06:53:50;;;;;;;;;;;;;;;27.73;44.76;99217.75;3170722;28;20006;-73
2023/08/28 06:55:23;;;;;;;;;;;;;;;27.72;45.09;99216.09;3170485;28;19935;-73
2023/08/28 06:56:54;;;;;;;;;;;;;;;27.77;44.91;99213.66;3170673;28;19928;-73
2023/08/28 06:58:25;;;;;;;;;;;;;;;27.88;44.37;99205.13;3166721;28;19931;-73
2023/08/28 06:59:57;;;;;;;;;;;;;;;28.00;44.19;99206.22;3169834;28;20446;-73
2023/08/28 07:01:29;;;;;;;;;;;;;;;28.03;44.10;99199.66;3160138;28;20355;-73
2023/08/28 07:03:00;;;;;;;;;;;;;;;28.03;44.16;99202.31;3170114;28;19934;-73
2023/08/28 07:04:31;;;;;;;;;;;;;;;28.10;44.02;99201.34;3170434;28;19935;-73
2023/08/28 07:06:02;;;;;;;;;;;;;;;28.20;43.83;99202.84;3170575;28;20397;-73
2023/08/28 07:07:33;;;;;;;;;;;;;;;28.29;43.58;99197.13;3169924;28;19935;-73
2023/08/28 07:09:05;;;;;;;;;;;;;;;28.42;43.41;99201.72;3170526;28;19927;-73
2023/08/28 07:10:35;;;;;;;;;;;;;;;28.58;43.31;99203.25;3170295;28;19928;-73
2023/08/28 07:12:08;;;;;;;;;;;;;;;28.70;43.13;99195.47;3166946;28;20524;-73
2023/08/28 07:13:38;;;;;;;;;;;;;;;28.80;43.04;99199.41;3157361;28;19940;-73
2023/08/28 07:15:28;;;;;;;;;;;;;;;28.79;42.66;99200.44;3169572;28;20260;-73
2023/08/28 07:17:02;;;;;;;;;;;;;;;28.77;42.39;99199.81;3145694;28;19928;-73
2023/08/28 07:18:33;;;;;;;;;;;;;;;28.75;42.83;99196.53;3145284;28;20004;-73
2023/08/28 07:20:06;;;;;;;;;;;;;;;28.87;42.98;99202.13;3169942;28;19928;-73
2023/08/28 07:21:37;;;;;;;;;;;;;;;28.96;42.58;99200.09;3170270;28;19971;-73
2023/08/28 07:23:08;;;;;;;;;;;;;;;29.06;42.91;99200.53;3169774;28;19923;-73
2023/08/28 07:24:40;;;;;;;;;;;;;;;29.18;42.87;99204.25;3170192;28;20428;-73
2023/08/28 07:26:12;;;;;;;;;;;;;;;29.34;42.48;99207.56;3170576;28;19924;-73
2023/08/28 07:27:42;;;;;;;;;;;;;;;29.57;42.30;99199.94;3161528;28;20293;-74
2023/08/28 07:29:14;;;;;;;;;;;;;;;29.77;41.45;99208.00;3165829;28;19984;-71
2023/08/28 07:30:44;;;;;;;;;;;;;;;29.97;41.46;99208.00;3170188;28;19924;-74
2023/08/28 07:32:17;;;;;;;;;;;;;;;30.23;41.05;99217.03;3170788;28;20403;-74
2023/08/28 07:33:48;;;;;;;;;;;;;;;30.39;40.64;99219.28;3170489;28;19950;-74
2023/08/28 07:35:20;;;;;;;;;;;;;;;30.56;40.47;99225.00;3170253;28;20001;-74
2023/08/28 07:36:52;;;;;;;;;;;;;;;30.66;40.28;99232.59;3170220;28;19934;-74
2023/08/28 07:38:22;;;;;;;;;;;;;;;30.77;40.01;99224.69;3170392;28;19942;-74
2023/08/28 07:39:54;;;;;;;;;;;;;;;30.98;40.30;99223.56;3170470;28;19927;-73
2023/08/28 07:41:24;;;;;;;;;;;;;;;31.25;39.87;99226.09;3165865;28;19925;-73
2023/08/28 07:42:56;;;;;;;;;;;;;;;31.57;39.31;99213.47;3169244;28;19923;-73
2023/08/28 07:44:28;;;;;;;;;;;;;;;31.85;38.63;99215.69;3168969;28;19924;-74
2023/08/28 07:45:58;;;;;;;;;;;;;;;32.08;38.03;99216.94;3170545;28;19935;-74
2023/08/28 07:47:31;;;;;;;;;;;;;;;32.33;38.03;99223.09;3169976;28;19930;-73
2023/08/28 07:49:03;;;;;;;;;;;;;;;32.69;37.36;99216.06;3170090;28;20484;-73
2023/08/28 07:50:34;;;;;;;;;;;;;;;32.91;36.24;99221.75;3169786;28;19927;-74
2023/08/28 07:52:05;;;;;;;;;;;;;;;32.95;36.03;99216.72;3169766;28;20435;-74
2023/08/28 07:53:37;;;;;;;;;;;;;;;33.03;35.47;99217.25;3170220;28;19924;-74
2023/08/28 07:55:08;;;;;;;;;;;;;;;32.88;35.31;99221.41;3170010;28;19977;-73
2023/08/28 07:56:39;;;;;;;;;;;;;;;32.71;35.35;99227.41;3164981;28;20445;-74